createdAt,value
2022-12-01T00:01:10.131Z,15.93
2022-12-01T00:03:37.497Z,16.50
2022-12-01T00:06:05.855Z,17.52
2022-12-01T00:08:34.005Z,14.75
2022-12-01T00:11:09.620Z,17.30
2022-12-01T00:13:37.278Z,16.17
2022-12-01T00:16:15.552Z,15.70
2022-12-01T00:18:43.215Z,16.75
2022-12-01T00:21:18.384Z,16.90
2022-12-01T00:23:50.420Z,16.10
2022-12-01T00:26:18.996Z,16.73
2022-12-01T00:28:52.973Z,14.87
2022-12-01T00:31:20.577Z,15.10
2022-12-01T00:33:47.356Z,14.88
2022-12-01T00:36:14.545Z,16.13
2022-12-01T00:38:41.767Z,15.10
2022-12-01T00:41:09.014Z,16.23
2022-12-01T00:43:36.197Z,15.43
2022-12-01T00:46:03.660Z,13.55
2022-12-01T00:48:30.536Z,14.88
2022-12-01T00:50:57.437Z,14.27
2022-12-01T00:53:24.797Z,15.83
2022-12-01T00:55:53.900Z,13.80
2022-12-01T00:58:21.428Z,15.85
2022-12-01T01:00:48.764Z,15.63
2022-12-01T01:03:16.304Z,13.13
2022-12-01T01:05:43.918Z,16.33
2022-12-01T01:08:13.178Z,14.68
2022-12-01T01:10:41.371Z,16.45
2022-12-01T01:13:08.616Z,16.65
2022-12-01T01:15:35.762Z,16.17
2022-12-01T01:18:03.041Z,17.30
2022-12-01T01:20:30.438Z,16.75
2022-12-01T01:22:57.400Z,16.55
2022-12-01T01:25:24.930Z,16.63
2022-12-01T01:27:52.160Z,16.38
2022-12-01T01:30:20.152Z,16.87
2022-12-01T01:32:47.350Z,17.27
2022-12-01T01:35:14.603Z,15.93
2022-12-01T01:37:41.807Z,17.15
2022-12-01T01:40:09.161Z,16.25
2022-12-01T01:42:35.998Z,15.50
2022-12-01T01:45:03.155Z,16.90
2022-12-01T01:47:34.843Z,16.92
2022-12-01T01:50:11.127Z,17.17
2022-12-01T01:52:51.687Z,15.13
2022-12-01T01:55:19.164Z,16.70
2022-12-01T01:57:46.800Z,17.70
2022-12-01T02:00:16.943Z,16.55
2022-12-01T02:02:45.656Z,17.33
2022-12-01T02:05:19.126Z,17.35
2022-12-01T02:07:47.834Z,16.00
2022-12-01T02:10:22.267Z,16.45
2022-12-01T02:12:49.484Z,15.68
2022-12-01T02:15:37.073Z,17.23
2022-12-01T02:18:09.592Z,17.30
2022-12-01T02:20:51.868Z,17.33
2022-12-01T02:23:35.782Z,14.68
2022-12-01T02:26:33.576Z,16.55
2022-12-01T02:29:49.109Z,17.08
2022-12-01T02:32:33.316Z,16.35
2022-12-01T02:35:54.168Z,17.27
2022-12-01T02:38:40.828Z,16.45
2022-12-01T02:41:30.107Z,17.17
2022-12-01T02:44:06.006Z,17.83
2022-12-01T02:46:35.556Z,16.48
2022-12-01T02:49:06.379Z,17.40
2022-12-01T02:51:34.624Z,16.85
2022-12-01T02:54:03.738Z,16.23
2022-12-01T02:56:30.939Z,15.73
2022-12-01T02:58:58.092Z,15.90
2022-12-01T03:01:38.084Z,17.23
2022-12-01T03:04:08.908Z,17.40
2022-12-01T03:07:10.746Z,16.13
2022-12-01T03:10:20.762Z,16.50
2022-12-01T03:12:47.934Z,15.75
2022-12-01T03:15:15.089Z,16.10
2022-12-01T03:18:09.112Z,16.88
2022-12-01T03:20:43.615Z,17.08
2022-12-01T03:23:16.435Z,16.40
2022-12-01T03:25:47.887Z,17.92
2022-12-01T03:28:22.210Z,16.67
2022-12-01T03:30:55.824Z,15.73
2022-12-01T03:33:33.852Z,17.58
2022-12-01T03:36:32.592Z,17.65
2022-12-01T03:39:04.588Z,17.63
2022-12-01T03:41:57.216Z,15.70
2022-12-01T03:44:31.218Z,17.23
2022-12-01T03:47:10.673Z,19.58
2022-12-01T03:49:39.849Z,17.15
2022-12-01T03:52:37.975Z,18.10
2022-12-01T03:55:20.823Z,16.63
2022-12-01T03:58:04.290Z,15.27
2022-12-01T04:00:31.733Z,17.23
2022-12-01T04:03:00.020Z,16.77
2022-12-01T04:05:27.315Z,16.52
2022-12-01T04:07:54.648Z,15.87
2022-12-01T04:10:22.092Z,17.92
2022-12-01T04:12:49.453Z,17.63
2022-12-01T04:15:17.110Z,17.20
2022-12-01T04:17:45.005Z,18.00
2022-12-01T04:20:14.539Z,15.90
2022-12-01T04:22:41.372Z,14.90
2022-12-01T04:25:09.007Z,16.70
2022-12-01T04:27:36.363Z,16.88
2022-12-01T04:30:07.864Z,13.68
2022-12-01T04:32:39.735Z,16.47
2022-12-01T04:35:07.836Z,17.77
2022-12-01T04:37:35.311Z,14.68
2022-12-01T04:40:02.466Z,17.73
2022-12-01T04:42:29.688Z,16.10
2022-12-01T04:44:56.868Z,17.23
2022-12-01T04:47:23.630Z,15.13
2022-12-01T04:49:51.048Z,15.98
2022-12-01T04:52:18.435Z,18.27
2022-12-01T04:54:45.601Z,14.82
2022-12-01T04:57:12.778Z,15.33
2022-12-01T04:59:39.571Z,15.23
2022-12-01T05:02:06.783Z,15.35
2022-12-01T05:04:34.221Z,16.05
2022-12-01T05:07:01.448Z,18.10
2022-12-01T05:09:28.617Z,16.77
2022-12-01T05:11:55.803Z,16.88
2022-12-01T05:14:23.007Z,14.00
2022-12-01T05:16:50.243Z,16.17
2022-12-01T05:19:35.791Z,17.35
2022-12-01T05:22:02.989Z,15.57
2022-12-01T05:24:30.259Z,16.40
2022-12-01T05:26:57.423Z,16.63
2022-12-01T05:29:24.843Z,16.45
2022-12-01T05:31:51.680Z,16.25
2022-12-01T05:34:18.927Z,16.93
2022-12-01T05:36:45.709Z,16.27
2022-12-01T05:39:12.926Z,15.90
2022-12-01T05:41:40.090Z,16.58
2022-12-01T05:44:07.260Z,14.80
2022-12-01T05:46:34.505Z,15.57
2022-12-01T05:49:01.708Z,13.57
2022-12-01T05:51:28.862Z,16.38
2022-12-01T05:53:56.135Z,16.88
2022-12-01T05:56:23.440Z,15.80
2022-12-01T05:58:50.607Z,18.10
2022-12-01T06:01:17.829Z,16.88
2022-12-01T06:03:45.190Z,17.42
2022-12-01T06:06:12.434Z,16.25
2022-12-01T06:08:39.628Z,20.45
2022-12-01T06:11:06.910Z,19.30
2022-12-01T06:13:34.176Z,16.90
2022-12-01T06:16:04.767Z,17.40
2022-12-01T06:18:33.647Z,17.38
2022-12-01T06:21:00.965Z,17.50
2022-12-01T06:23:30.618Z,16.20
2022-12-01T06:25:58.272Z,16.90
2022-12-01T06:28:25.527Z,15.88
2022-12-01T06:30:55.491Z,16.70
2022-12-01T06:33:26.647Z,16.00
2022-12-01T06:36:04.808Z,15.13
2022-12-01T06:38:33.280Z,16.48
2022-12-01T06:41:00.850Z,17.83
2022-12-01T06:43:28.383Z,15.35
2022-12-01T06:46:01.325Z,15.57
2022-12-01T06:48:29.503Z,16.43
2022-12-01T06:51:00.528Z,17.10
2022-12-01T06:53:28.562Z,16.58
2022-12-01T06:56:04.323Z,22.00
2022-12-01T06:58:31.856Z,23.13
2022-12-01T07:00:59.800Z,15.83
2022-12-01T07:03:27.084Z,16.42
2022-12-01T07:05:59.337Z,17.52
2022-12-01T07:08:27.649Z,16.60
2022-12-01T07:11:05.453Z,15.43
2022-12-01T07:13:34.023Z,16.87
2022-12-01T07:16:04.506Z,19.40
2022-12-01T07:18:32.048Z,15.90
2022-12-01T07:21:03.979Z,16.90
2022-12-01T07:23:31.231Z,16.98
2022-12-01T07:26:02.766Z,16.03
2022-12-01T07:28:30.377Z,16.70
2022-12-01T07:31:12.090Z,17.80
2022-12-01T07:33:39.722Z,16.80
2022-12-01T07:36:07.464Z,19.17
2022-12-01T07:38:35.705Z,20.07
2022-12-01T07:41:13.683Z,21.90
2022-12-01T07:43:41.330Z,20.08
2022-12-01T07:46:20.376Z,18.58
2022-12-01T07:48:49.374Z,20.55
2022-12-01T07:51:16.818Z,20.50
2022-12-01T07:53:47.989Z,22.73
2022-12-01T07:56:15.419Z,19.27
2022-12-01T07:58:42.615Z,20.23
2022-12-01T08:01:14.998Z,19.17
2022-12-01T08:03:42.529Z,19.33
2022-12-01T08:06:10.214Z,17.65
2022-12-01T08:08:39.103Z,20.42
2022-12-01T08:11:09.910Z,19.63
2022-12-01T08:13:37.230Z,17.48
2022-12-01T08:16:06.036Z,21.50
2022-12-01T08:18:37.524Z,19.42
2022-12-01T08:21:05.398Z,18.63
2022-12-01T08:23:32.815Z,18.55
2022-12-01T08:26:04.143Z,18.88
2022-12-01T08:28:31.384Z,19.30
2022-12-01T08:30:58.814Z,19.02
2022-12-01T08:33:26.145Z,17.50
2022-12-01T08:35:53.555Z,19.42
2022-12-01T08:38:20.790Z,19.83
2022-12-01T08:40:48.027Z,18.73
2022-12-01T08:43:41.407Z,18.88
2022-12-01T08:46:02.436Z,19.10
2022-12-01T08:48:30.117Z,17.67
2022-12-01T08:51:11.995Z,18.25
2022-12-01T08:53:45.492Z,19.87
2022-12-01T08:56:31.392Z,19.85
2022-12-01T08:58:58.431Z,18.85
2022-12-01T09:01:26.417Z,20.27
2022-12-01T09:04:05.745Z,23.42
2022-12-01T09:06:37.419Z,19.57
2022-12-01T09:09:05.034Z,18.63
2022-12-01T09:11:32.348Z,19.15
2022-12-01T09:14:00.023Z,21.45
2022-12-01T09:16:27.250Z,17.85
2022-12-01T09:18:55.532Z,20.03
2022-12-01T09:21:33.433Z,20.30
2022-12-01T09:24:01.586Z,19.48
2022-12-01T09:26:29.022Z,19.67
2022-12-01T09:28:58.900Z,21.75
2022-12-01T09:31:26.082Z,19.73
2022-12-01T09:34:04.483Z,18.88
2022-12-01T09:36:33.588Z,19.92
2022-12-01T09:39:01.125Z,21.13
2022-12-01T09:41:39.820Z,21.05
2022-12-01T09:44:31.606Z,19.87
2022-12-01T09:47:24.089Z,21.38
2022-12-01T09:50:00.902Z,20.30
2022-12-01T09:52:32.574Z,19.80
2022-12-01T09:55:01.337Z,19.75
2022-12-01T09:57:35.210Z,19.33
2022-12-01T10:00:13.870Z,19.00
2022-12-01T10:03:08.637Z,21.08
2022-12-01T10:06:25.291Z,21.17
2022-12-01T10:08:44.078Z,20.42
2022-12-01T10:11:36.981Z,19.90
2022-12-01T10:14:06.105Z,20.08
2022-12-01T10:16:43.465Z,19.70
2022-12-01T10:19:32.915Z,19.55
2022-12-01T10:22:00.126Z,19.65
2022-12-01T10:24:52.463Z,21.17
2022-12-01T10:27:37.074Z,21.65
2022-12-01T10:30:15.497Z,19.92
2022-12-01T10:32:52.220Z,20.65
2022-12-01T10:35:29.227Z,19.48
2022-12-01T10:38:29.368Z,20.57
2022-12-01T10:40:59.873Z,20.83
2022-12-01T10:43:40.585Z,20.52
2022-12-01T10:46:47.931Z,21.45
2022-12-01T10:49:16.917Z,20.90
2022-12-01T10:51:54.058Z,19.87
2022-12-01T10:54:22.921Z,21.23
2022-12-01T10:56:55.177Z,21.70
2022-12-01T10:59:32.650Z,21.67
2022-12-01T11:02:00.437Z,22.55
2022-12-01T11:04:45.489Z,20.97
2022-12-01T11:07:22.648Z,21.77
2022-12-01T11:10:17.637Z,20.50
2022-12-01T11:12:52.460Z,20.65
2022-12-01T11:15:23.269Z,21.98
2022-12-01T11:17:59.448Z,22.37
2022-12-01T11:20:32.444Z,21.63
2022-12-01T11:23:24.259Z,22.05
2022-12-01T11:26:14.145Z,20.75
2022-12-01T11:28:51.053Z,21.50
2022-12-01T11:31:19.157Z,20.70
2022-12-01T11:33:52.850Z,21.10
2022-12-01T11:36:46.156Z,20.85
2022-12-01T11:39:24.854Z,20.30
2022-12-01T11:42:01.188Z,21.95
2022-12-01T11:44:50.326Z,20.67
2022-12-01T11:47:24.168Z,20.48
2022-12-01T11:50:00.362Z,19.80
2022-12-01T11:52:27.614Z,20.33
2022-12-01T11:54:56.697Z,20.52
2022-12-01T11:57:34.257Z,20.80
2022-12-01T12:00:05.834Z,19.95
2022-12-01T12:02:49.106Z,20.05
2022-12-01T12:05:49.909Z,19.08
2022-12-01T12:08:34.336Z,19.83
2022-12-01T12:11:21.144Z,18.65
2022-12-01T12:14:06.585Z,19.02
2022-12-01T12:17:03.123Z,18.27
2022-12-01T12:19:34.233Z,18.88
2022-12-01T12:22:15.256Z,20.08
2022-12-01T12:25:04.496Z,20.15
2022-12-01T12:28:05.884Z,19.13
2022-12-01T12:30:46.484Z,20.52
2022-12-01T12:33:19.220Z,18.50
2022-12-01T12:36:12.608Z,19.20
2022-12-01T12:39:13.621Z,18.52
2022-12-01T12:41:57.223Z,18.10
2022-12-01T12:45:06.299Z,19.55
2022-12-01T12:48:02.406Z,18.67
2022-12-01T12:50:54.182Z,19.73
2022-12-01T12:53:25.651Z,19.48
2022-12-01T12:55:58.844Z,18.92
2022-12-01T12:58:31.143Z,19.60
2022-12-01T13:01:20.549Z,20.17
2022-12-01T13:04:09.440Z,18.42
2022-12-01T13:06:41.275Z,19.98
2022-12-01T13:09:19.595Z,20.42
2022-12-01T13:11:56.713Z,20.25
2022-12-01T13:14:29.533Z,19.77
2022-12-01T13:17:02.590Z,19.08
2022-12-01T13:19:34.765Z,19.20
2022-12-01T13:22:02.906Z,18.52
2022-12-01T13:24:31.251Z,17.50
2022-12-01T13:27:03.767Z,17.98
2022-12-01T13:29:40.853Z,17.85
2022-12-01T13:32:33.548Z,19.37
2022-12-01T13:35:02.588Z,17.50
2022-12-01T13:37:32.514Z,17.23
2022-12-01T13:40:22.048Z,17.67
2022-12-01T13:43:10.412Z,17.50
2022-12-01T13:45:40.005Z,17.20
2022-12-01T13:48:26.383Z,18.45
2022-12-01T13:50:53.572Z,17.33
2022-12-01T13:53:22.863Z,17.63
2022-12-01T13:55:58.488Z,17.88
2022-12-01T13:58:33.335Z,18.37
2022-12-01T14:01:22.511Z,16.63
2022-12-01T14:04:11.590Z,17.50
2022-12-01T14:06:49.547Z,17.55
2022-12-01T14:09:53.981Z,17.50
2022-12-01T14:12:25.408Z,17.50
2022-12-01T14:15:01.860Z,18.15
2022-12-01T14:17:32.048Z,16.98
2022-12-01T14:20:21.654Z,18.13
2022-12-01T14:23:21.362Z,16.85
2022-12-01T14:26:21.260Z,16.63
2022-12-01T14:29:00.295Z,18.38
2022-12-01T14:31:33.135Z,17.88
2022-12-01T14:34:18.762Z,17.92
2022-12-01T14:36:58.664Z,17.83
2022-12-01T14:39:32.896Z,17.33
2022-12-01T14:42:44.088Z,17.85
2022-12-01T14:45:16.263Z,17.63
2022-12-01T14:47:50.815Z,17.85
2022-12-01T14:50:31.625Z,18.00
2022-12-01T14:53:16.308Z,17.37
2022-12-01T14:55:50.426Z,19.63
2022-12-01T14:58:32.203Z,19.10
2022-12-01T15:01:04.813Z,19.38
2022-12-01T15:03:45.366Z,18.40
2022-12-01T15:06:17.988Z,19.40
2022-12-01T15:09:04.187Z,17.30
2022-12-01T15:11:33.233Z,17.88
2022-12-01T15:14:00.571Z,19.33
2022-12-01T15:16:32.077Z,18.42
2022-12-01T15:18:59.582Z,18.50
2022-12-01T15:21:31.755Z,18.05
2022-12-01T15:24:19.681Z,18.75
2022-12-01T15:26:49.004Z,16.70
2022-12-01T15:29:17.145Z,18.10
2022-12-01T15:31:47.262Z,18.07
2022-12-01T15:34:18.834Z,16.90
2022-12-01T15:36:47.118Z,18.15
2022-12-01T15:39:20.714Z,18.23
2022-12-01T15:41:53.870Z,18.08
2022-12-01T15:44:26.977Z,17.23
2022-12-01T15:46:54.494Z,17.92
2022-12-01T15:49:30.054Z,17.20
2022-12-01T15:52:17.289Z,18.83
2022-12-01T15:54:48.578Z,19.17
2022-12-01T15:57:21.104Z,17.53
2022-12-01T15:59:53.962Z,18.02
2022-12-01T16:02:21.223Z,19.17
2022-12-01T16:04:49.317Z,19.40
2022-12-01T16:07:16.877Z,21.77
2022-12-01T16:09:56.419Z,21.27
2022-12-01T16:12:25.984Z,19.88
2022-12-01T16:15:11.997Z,19.88
2022-12-01T16:17:53.819Z,23.23
2022-12-01T16:20:31.189Z,20.83
2022-12-01T16:23:01.233Z,21.00
2022-12-01T16:25:30.197Z,21.88
2022-12-01T16:27:58.057Z,23.85
2022-12-01T16:30:30.173Z,25.05
2022-12-01T16:33:16.046Z,23.27
2022-12-01T16:35:43.646Z,23.90
2022-12-01T16:38:19.500Z,21.85
2022-12-01T16:40:48.104Z,18.45
2022-12-01T16:43:17.153Z,18.40
2022-12-01T16:45:45.394Z,18.67
2022-12-01T16:48:13.108Z,20.17
2022-12-01T16:50:40.504Z,20.85
2022-12-01T16:53:07.724Z,22.40
2022-12-01T16:55:34.978Z,21.20
2022-12-01T16:58:02.423Z,21.45
2022-12-01T17:00:30.208Z,22.30
2022-12-01T17:02:57.883Z,24.95
2022-12-01T17:05:25.172Z,25.02
2022-12-01T17:07:52.619Z,25.73
2022-12-01T17:10:20.521Z,24.30
2022-12-01T17:12:47.821Z,30.23
2022-12-01T17:15:15.107Z,27.67
2022-12-01T17:17:42.411Z,30.73
2022-12-01T17:20:10.354Z,30.77
2022-12-01T17:22:37.835Z,28.25
2022-12-01T17:25:05.655Z,26.47
2022-12-01T17:27:33.045Z,24.35
2022-12-01T17:30:02.354Z,24.92
2022-12-01T17:32:29.642Z,26.02
2022-12-01T17:34:56.860Z,27.35
2022-12-01T17:37:24.153Z,25.80
2022-12-01T17:39:51.411Z,26.50
2022-12-01T17:42:18.600Z,24.92
2022-12-01T17:44:46.032Z,22.55
2022-12-01T17:47:13.599Z,23.33
2022-12-01T17:49:40.427Z,23.27
2022-12-01T17:52:08.446Z,21.17
2022-12-01T17:54:35.376Z,21.45
2022-12-01T17:57:02.720Z,25.60
2022-12-01T17:59:29.563Z,22.30
2022-12-01T18:01:56.909Z,21.53
2022-12-01T18:04:24.242Z,21.77
2022-12-01T18:06:54.258Z,21.00
2022-12-01T18:09:22.087Z,21.52
2022-12-01T18:11:49.515Z,20.50
2022-12-01T18:14:17.854Z,20.67
2022-12-01T18:16:45.595Z,21.15
2022-12-01T18:19:13.058Z,21.88
2022-12-01T18:21:40.395Z,21.27
2022-12-01T18:24:09.204Z,22.75
2022-12-01T18:26:38.295Z,53.43
2022-12-01T18:29:08.332Z,45.75
2022-12-01T18:31:36.055Z,41.28
2022-12-01T18:34:03.738Z,31.05
2022-12-01T18:36:32.405Z,26.05
2022-12-01T18:39:00.483Z,20.43
2022-12-01T18:41:27.743Z,20.70
2022-12-01T18:43:55.138Z,22.17
2022-12-01T18:46:22.424Z,23.38
2022-12-01T18:48:52.080Z,23.90
2022-12-01T18:51:19.707Z,22.00
2022-12-01T18:53:47.813Z,22.58
2022-12-01T18:56:15.677Z,22.52
2022-12-01T18:58:43.134Z,23.65
2022-12-01T19:01:26.023Z,23.02
2022-12-01T19:03:55.817Z,23.93
2022-12-01T19:06:23.470Z,25.00
2022-12-01T19:08:50.848Z,27.90
2022-12-01T19:11:18.301Z,25.33
2022-12-01T19:13:46.042Z,26.02
2022-12-01T19:16:15.037Z,25.40
2022-12-01T19:18:42.330Z,23.45
2022-12-01T19:21:11.140Z,20.25
2022-12-01T19:23:38.391Z,22.92
2022-12-01T19:26:07.158Z,35.30
2022-12-01T19:28:35.412Z,37.83
2022-12-01T19:31:11.281Z,38.55
2022-12-01T19:33:38.895Z,32.78
2022-12-01T19:36:07.931Z,29.88
2022-12-01T19:38:35.288Z,22.63
2022-12-01T19:41:02.789Z,22.43
2022-12-01T19:43:29.660Z,22.48
2022-12-01T19:45:56.966Z,20.48
2022-12-01T19:48:24.283Z,19.05
2022-12-01T19:50:51.599Z,19.02
2022-12-01T19:53:18.844Z,21.50
2022-12-01T19:55:46.096Z,20.98
2022-12-01T19:58:13.359Z,20.45
2022-12-01T20:00:40.638Z,21.15
2022-12-01T20:03:07.995Z,20.13
2022-12-01T20:05:35.321Z,18.63
2022-12-01T20:08:02.826Z,18.77
2022-12-01T20:10:30.092Z,18.38
2022-12-01T20:12:57.412Z,20.67
2022-12-01T20:15:25.001Z,23.15
2022-12-01T20:17:53.724Z,21.27
2022-12-01T20:20:20.962Z,19.30
2022-12-01T20:22:48.267Z,19.05
2022-12-01T20:25:15.440Z,21.05
2022-12-01T20:27:42.707Z,20.02
2022-12-01T20:30:10.384Z,18.97
2022-12-01T20:32:37.971Z,19.83
2022-12-01T20:35:05.377Z,18.55
2022-12-01T20:37:32.596Z,20.38
2022-12-01T20:40:00.184Z,18.73
2022-12-01T20:42:27.446Z,18.47
2022-12-01T20:44:54.197Z,19.73
2022-12-01T20:47:21.493Z,17.65
2022-12-01T20:49:48.730Z,15.38
2022-12-01T20:52:16.043Z,17.10
2022-12-01T20:54:44.704Z,19.03
2022-12-01T20:57:11.968Z,19.80
2022-12-01T20:59:39.264Z,18.58
2022-12-01T21:02:06.341Z,18.65
2022-12-01T21:04:33.663Z,17.83
2022-12-01T21:07:01.959Z,18.87
2022-12-01T21:09:29.195Z,18.52
2022-12-01T21:12:17.179Z,19.77
2022-12-01T21:15:12.078Z,21.10
2022-12-01T21:18:04.077Z,24.38
2022-12-01T21:20:35.936Z,19.73
2022-12-01T21:23:15.195Z,18.90
2022-12-01T21:25:43.402Z,19.42
2022-12-01T21:28:25.121Z,22.95
2022-12-01T21:31:25.474Z,22.95
2022-12-01T21:33:52.826Z,20.60
2022-12-01T21:36:24.043Z,17.65
2022-12-01T21:38:55.805Z,21.67
2022-12-01T21:41:30.145Z,22.63
2022-12-01T21:44:07.540Z,23.95
2022-12-01T21:46:35.282Z,23.83
2022-12-01T21:49:02.707Z,21.80
2022-12-01T21:51:30.844Z,20.60
2022-12-01T21:53:58.052Z,21.77
2022-12-01T21:56:27.747Z,22.15
2022-12-01T21:59:02.571Z,22.17
2022-12-01T22:01:31.377Z,20.25
2022-12-01T22:04:05.630Z,19.27
2022-12-01T22:06:32.792Z,17.70
2022-12-01T22:09:18.160Z,17.77
2022-12-01T22:11:50.898Z,18.57
2022-12-01T22:14:27.753Z,20.80
2022-12-01T22:16:57.919Z,19.52
2022-12-01T22:19:29.887Z,18.98
2022-12-01T22:22:02.774Z,18.73
2022-12-01T22:24:53.583Z,17.50
2022-12-01T22:27:32.716Z,17.85
2022-12-01T22:30:05.697Z,16.63
2022-12-01T22:32:53.235Z,18.50
2022-12-01T22:35:24.525Z,18.70
2022-12-01T22:38:10.980Z,18.10
2022-12-01T22:40:53.695Z,18.23
2022-12-01T22:43:49.716Z,18.67
2022-12-01T22:46:35.386Z,18.20
2022-12-01T22:49:02.648Z,18.15
2022-12-01T22:51:40.308Z,19.87
2022-12-01T22:54:09.850Z,18.67
2022-12-01T22:56:41.793Z,19.17
2022-12-01T22:59:21.791Z,19.70
2022-12-01T23:01:55.902Z,19.95
2022-12-01T23:04:23.277Z,16.87
2022-12-01T23:06:57.942Z,18.30
2022-12-01T23:09:31.836Z,17.63
2022-12-01T23:12:09.883Z,18.73
2022-12-01T23:14:41.251Z,19.65
2022-12-01T23:17:16.483Z,16.93
2022-12-01T23:19:43.638Z,17.83
2022-12-01T23:22:11.787Z,19.30
2022-12-01T23:24:39.295Z,21.13
2022-12-01T23:27:06.795Z,20.05
2022-12-01T23:29:34.522Z,20.60
2022-12-01T23:32:01.709Z,20.05
2022-12-01T23:34:29.169Z,21.17
2022-12-01T23:36:57.231Z,20.65
2022-12-01T23:39:31.841Z,20.70
2022-12-01T23:41:59.352Z,20.93
2022-12-01T23:44:26.556Z,22.45
2022-12-01T23:46:56.554Z,21.92
2022-12-01T23:49:29.652Z,22.40
2022-12-01T23:51:59.892Z,21.10
2022-12-01T23:54:33.575Z,19.00
2022-12-01T23:57:11.784Z,20.27
2022-12-01T23:59:38.589Z,22.15
